Time;durP1;ratioP1;P1;durP2;ratioP2;P2;SDS_P1;SDS_P2;PMS_P1;PMS_P2;Temp;Humidity;BMP_temperature;BMP_pressure;BME280_temperature;BME280_humidity;BME280_pressure;Samples;Min_cycle;Max_cycle;Signal;HPM_P1;HPM_P2
2024/04/18 00:01:51;;;;;;;18.80;15.80;;;;;;;4.32;79.36;96252.75;104724;1259;99267;-79
2024/04/18 00:04:17;;;;;;;19.90;14.40;;;;;;;4.31;79.27;96253.94;104700;1270;99269;-79
2024/04/18 00:06:43;;;;;;;16.60;14.10;;;;;;;4.24;79.09;96257.80;104748;1273;99262;-78
2024/04/18 00:09:10;;;;;;;15.80;13.70;;;;;;;4.19;79.10;96261.24;104689;1270;99291;-79
2024/04/18 00:11:36;;;;;;;17.40;13.90;;;;;;;4.16;79.09;96264.56;104703;1257;99255;-79
2024/04/18 00:14:02;;;;;;;17.70;14.90;;;;;;;4.13;79.20;96262.69;104679;1261;99267;-79
2024/04/18 00:16:29;;;;;;;19.20;14.30;;;;;;;4.12;79.30;96264.37;104739;1266;99260;-78
2024/04/18 00:18:55;;;;;;;18.10;14.30;;;;;;;4.11;79.40;96266.88;104684;1263;99296;-79
2024/04/18 00:21:22;;;;;;;19.20;15.60;;;;;;;4.10;79.55;96267.17;104686;1273;99407;-79
2024/04/18 00:23:48;;;;;;;21.90;16.00;;;;;;;4.09;79.62;96268.02;104639;1260;102095;-79
2024/04/18 00:26:14;;;;;;;20.90;15.60;;;;;;;4.12;79.79;96264.37;104752;1262;99271;-79
2024/04/18 00:28:40;;;;;;;19.10;15.10;;;;;;;4.18;79.85;96264.56;104651;1259;99325;-79
2024/04/18 00:31:07;;;;;;;19.50;15.20;;;;;;;4.25;79.82;96266.67;104715;1259;99363;-84
2024/04/18 00:33:33;;;;;;;21.80;16.20;;;;;;;4.31;79.76;96268.29;104626;1269;99254;-84
2024/04/18 00:35:59;;;;;;;22.10;16.60;;;;;;;4.37;79.76;96267.92;104641;1280;99294;-85
2024/04/18 00:38:26;;;;;;;21.70;16.80;;;;;;;4.41;79.69;96269.46;104645;1270;99266;-85
2024/04/18 00:40:52;;;;;;;23.10;16.80;;;;;;;4.45;79.66;96271.46;104686;1270;99328;-84
2024/04/18 00:43:20;;;;;;;20.90;17.40;;;;;;;4.46;79.51;96270.47;104704;1260;102908;-84
2024/04/18 00:45:46;;;;;;;20.70;17.70;;;;;;;4.45;79.56;96271.50;104703;1257;99282;-84
2024/04/18 00:48:13;;;;;;;20.80;18.70;;;;;;;4.46;79.59;96271.50;104744;1257;100551;-72
2024/04/18 00:50:39;;;;;;;24.60;19.60;;;;;;;4.49;79.59;96273.43;104696;1268;99844;-73
2024/04/18 00:53:06;;;;;;;21.60;18.80;;;;;;;4.52;79.51;96277.71;104651;1279;99276;-73
2024/04/18 00:55:36;;;;;;;23.30;19.40;;;;;;;4.52;79.52;96276.16;104622;1262;99349;-72
2024/04/18 00:58:02;;;;;;;22.70;18.50;;;;;;;4.54;79.50;96274.02;104739;1259;99294;-73
2024/04/18 01:00:32;;;;;;;20.60;17.50;;;;;;;4.56;79.51;96275.02;104735;1257;99308;-72
2024/04/18 01:02:58;;;;;;;27.20;19.40;;;;;;;4.57;79.44;96277.79;104708;1264;99737;-76
2024/04/18 01:05:25;;;;;;;21.30;17.80;;;;;;;4.56;79.39;96275.89;104711;1264;99256;-76
2024/04/18 01:07:51;;;;;;;22.50;17.20;;;;;;;4.52;79.37;96274.92;104687;1270;99785;-76
2024/04/18 01:10:17;;;;;;;21.50;18.20;;;;;;;4.43;79.33;96275.11;104764;1261;99233;-76
2024/04/18 01:12:55;;;;;;;21.20;18.00;;;;;;;4.41;79.38;96279.82;104695;1260;99747;-76
2024/04/18 01:15:21;;;;;;;23.40;19.00;;;;;;;4.43;79.43;96277.98;104787;1260;104612;-76
2024/04/18 01:17:48;;;;;;;24.70;18.80;;;;;;;4.47;79.49;96274.28;104670;1279;99387;-76
2024/04/18 01:20:15;;;;;;;25.50;20.60;;;;;;;4.50;79.49;96278.27;104658;1279;99278;-76
2024/04/18 01:22:41;;;;;;;29.10;21.50;;;;;;;4.51;79.44;96280.80;104674;1260;100617;-76
2024/04/18 01:25:08;;;;;;;27.10;21.60;;;;;;;4.52;79.49;96278.38;104789;1270;99368;-76
2024/04/18 01:27:34;;;;;;;25.60;21.10;;;;;;;4.55;79.54;96281.19;104666;1260;101406;-76
2024/04/18 01:30:00;;;;;;;29.30;20.50;;;;;;;4.57;79.55;96278.41;104585;1270;139389;-77
2024/04/18 01:32:29;;;;;;;28.00;21.40;;;;;;;4.56;79.51;96280.13;104676;1263;99291;-79
2024/04/18 01:34:55;;;;;;;29.30;22.30;;;;;;;4.57;79.49;96281.33;104738;1256;99405;-79
2024/04/18 01:37:22;;;;;;;26.80;22.20;;;;;;;4.56;79.52;96279.77;104745;1260;99252;-79
2024/04/18 01:39:48;;;;;;;31.70;22.60;;;;;;;4.57;79.56;96282.02;104824;1270;99365;-79
2024/04/18 01:42:14;;;;;;;30.10;22.80;;;;;;;4.54;79.55;96285.02;104684;1262;99343;-79
2024/04/18 01:44:41;;;;;;;28.90;24.80;;;;;;;4.50;79.53;96282.02;104781;1260;99288;-77
2024/04/18 01:47:08;;;;;;;28.70;24.40;;;;;;;4.47;79.51;96282.84;104694;1270;99968;-76
2024/04/18 01:49:34;;;;;;;30.50;24.70;;;;;;;4.46;79.52;96284.41;104738;1278;99550;-76
2024/04/18 01:52:00;;;;;;;32.70;24.90;;;;;;;4.44;79.55;96283.38;104672;1279;99335;-76
2024/04/18 01:54:26;;;;;;;34.30;24.50;;;;;;;4.39;79.59;96283.71;104714;1270;99231;-76
2024/04/18 01:56:53;;;;;;;31.60;24.50;;;;;;;4.37;79.66;96281.48;104664;1261;100562;-76
2024/04/18 01:59:19;;;;;;;31.60;24.60;;;;;;;4.38;79.66;96284.20;104737;1260;99340;-76
2024/04/18 02:01:45;;;;;;;32.20;25.60;;;;;;;4.36;79.70;96280.30;104642;1257;99412;-84
2024/04/18 02:04:12;;;;;;;33.50;25.70;;;;;;;4.31;79.70;96280.24;104617;1261;100593;-84
2024/04/18 02:06:38;;;;;;;32.20;24.90;;;;;;;4.26;79.73;96276.64;104679;1259;99356;-83
2024/04/18 02:09:04;;;;;;;33.50;25.70;;;;;;;4.23;79.85;96283.61;104814;1279;99327;-83
2024/04/18 02:11:31;;;;;;;33.20;26.30;;;;;;;4.16;79.85;96286.38;104640;1262;99394;-84
2024/04/18 02:13:57;;;;;;;35.70;26.40;;;;;;;4.09;79.93;96288.81;104690;1260;100527;-84
2024/04/18 02:16:24;;;;;;;35.80;27.40;;;;;;;4.04;80.00;96286.44;104674;1257;99280;-72
2024/04/18 02:18:50;;;;;;;35.00;26.00;;;;;;;4.04;80.12;96289.73;104705;1257;100463;-72
2024/04/18 02:21:16;;;;;;;34.30;26.30;;;;;;;4.01;80.17;96288.14;104646;1258;99358;-72
2024/04/18 02:23:43;;;;;;;33.50;26.60;;;;;;;3.96;80.10;96286.73;104693;1272;99262;-73
2024/04/18 02:26:09;;;;;;;35.50;26.80;;;;;;;3.94;80.30;96285.73;104647;1260;99276;-72
2024/04/18 02:28:36;;;;;;;32.60;24.40;;;;;;;3.93;80.35;96289.55;104802;1257;99183;-72
2024/04/18 02:31:04;;;;;;;31.90;24.50;;;;;;;3.90;80.36;96291.58;104620;1259;99270;-73
2024/04/18 02:33:32;;;;;;;32.40;24.90;;;;;;;3.90;80.44;96291.25;104642;1260;99746;-72
2024/04/18 02:35:58;;;;;;;28.20;23.50;;;;;;;3.91;80.38;96294.46;104671;1261;103709;-73
2024/04/18 02:38:24;;;;;;;31.80;25.30;;;;;;;3.94;80.39;96297.20;104686;1260;99361;-72
2024/04/18 02:40:51;;;;;;;33.90;26.60;;;;;;;3.97;80.45;96295.16;104755;1260;99302;-72
2024/04/18 02:43:17;;;;;;;36.10;27.00;;;;;;;4.01;80.40;96294.02;104754;1260;99396;-72
2024/04/18 02:45:43;;;;;;;34.50;27.80;;;;;;;4.02;80.53;96292.59;104633;1260;105306;-76
2024/04/18 02:48:10;;;;;;;37.50;27.20;;;;;;;4.06;80.53;96292.45;104692;1259;99170;-76
2024/04/18 02:50:36;;;;;;;37.00;27.00;;;;;;;4.07;80.43;96289.83;104705;1260;99247;-76
2024/04/18 02:53:02;;;;;;;34.00;27.00;;;;;;;4.08;80.40;96293.05;104711;1259;99269;-76
2024/04/18 02:55:29;;;;;;;32.60;26.10;;;;;;;4.08;80.28;96293.78;104637;1261;103684;-76
2024/04/18 02:57:55;;;;;;;39.10;27.90;;;;;;;4.09;80.43;96291.73;104690;1259;99375;-76
2024/04/18 03:00:22;;;;;;;37.10;27.60;;;;;;;4.12;80.50;96288.69;104679;1259;99269;-77
2024/04/18 03:02:48;;;;;;;35.00;27.00;;;;;;;4.16;80.51;96290.85;104720;1260;99263;-76
2024/04/18 03:05:17;;;;;;;38.70;27.20;;;;;;;4.18;80.45;96287.73;104460;1265;104401;-76
2024/04/18 03:07:43;;;;;;;34.80;26.90;;;;;;;4.21;80.39;96290.44;104625;1270;101708;-76
2024/04/18 03:10:09;;;;;;;40.90;27.20;;;;;;;4.23;80.40;96289.28;104658;1261;99330;-76
2024/04/18 03:12:36;;;;;;;34.00;26.90;;;;;;;4.25;80.29;96285.30;104667;1260;99338;-76
2024/04/18 03:15:03;;;;;;;37.70;27.00;;;;;;;4.27;80.14;96288.02;104739;1270;99282;-76
2024/04/18 03:17:29;;;;;;;33.60;27.00;;;;;;;4.28;80.24;96283.17;104685;1256;100779;-76
2024/04/18 03:19:56;;;;;;;38.10;26.90;;;;;;;4.27;80.24;96281.04;104672;1260;99327;-76
2024/04/18 03:22:22;;;;;;;36.40;27.50;;;;;;;4.27;80.14;96280.02;104575;1270;99347;-76
2024/04/18 03:24:48;;;;;;;36.50;27.60;;;;;;;4.30;80.17;96282.91;104635;1261;99318;-76
2024/04/18 03:27:15;;;;;;;37.30;27.90;;;;;;;4.31;80.15;96281.68;104660;1271;101356;-76
2024/04/18 03:29:41;;;;;;;37.20;26.50;;;;;;;4.32;80.16;96279.10;104625;1257;102107;-76
2024/04/18 03:32:07;;;;;;;32.60;25.30;;;;;;;4.33;80.11;96281.23;104698;1260;100617;-73
2024/04/18 03:34:34;;;;;;;28.30;21.70;;;;;;;4.33;80.10;96281.78;104872;1261;99259;-72
2024/04/18 03:37:00;;;;;;;35.60;26.50;;;;;;;4.28;79.84;96282.98;104623;1261;101293;-73
2024/04/18 03:39:30;;;;;;;33.00;26.10;;;;;;;4.25;79.67;96292.65;104731;1271;99363;-72
2024/04/18 03:41:56;;;;;;;35.80;27.70;;;;;;;4.18;79.79;96291.64;104651;1259;99652;-72
2024/04/18 03:44:23;;;;;;;39.30;29.40;;;;;;;4.12;79.98;96292.92;104656;1257;99267;-72
2024/04/18 03:46:49;;;;;;;40.40;28.10;;;;;;;4.09;80.18;96293.46;104688;1261;99353;-73
2024/04/18 03:49:16;;;;;;;34.40;27.80;;;;;;;4.09;80.28;96296.34;104738;1260;99328;-72
2024/04/18 03:51:42;;;;;;;38.90;29.00;;;;;;;4.09;80.35;96295.91;104668;1263;100471;-72
2024/04/18 03:54:08;;;;;;;37.60;28.20;;;;;;;4.13;80.32;96297.80;104716;1270;99622;-72
2024/04/18 03:56:35;;;;;;;39.50;29.10;;;;;;;4.14;80.30;96299.18;104648;1260;99276;-72
2024/04/18 03:59:02;;;;;;;39.20;29.30;;;;;;;4.16;80.31;96301.79;104661;1270;99346;-76
2024/04/18 04:01:29;;;;;;;39.00;29.60;;;;;;;4.18;80.33;96301.42;104624;1270;99263;-73
2024/04/18 04:03:56;;;;;;;37.40;29.70;;;;;;;4.19;80.40;96305.84;104694;1255;99291;-83
2024/04/18 04:06:23;;;;;;;42.40;30.00;;;;;;;4.21;80.36;96305.14;104707;1279;99312;-84
2024/04/18 04:08:50;;;;;;;40.40;29.70;;;;;;;4.23;80.27;96308.88;104668;1260;99247;-83
2024/04/18 04:11:16;;;;;;;43.40;30.70;;;;;;;4.24;80.27;96308.89;104682;1260;99272;-84
2024/04/18 04:13:43;;;;;;;40.90;29.40;;;;;;;4.24;80.28;96310.20;104716;1259;100606;-83
2024/04/18 04:16:09;;;;;;;39.90;28.60;;;;;;;4.23;80.29;96315.45;104714;1257;103779;-80
2024/04/18 04:18:35;;;;;;;39.50;28.50;;;;;;;4.22;80.22;96315.91;104679;1259;99349;-83
2024/04/18 04:21:02;;;;;;;39.20;30.00;;;;;;;4.22;80.21;96317.95;104685;1259;99925;-84
2024/04/18 04:23:28;;;;;;;42.30;31.70;;;;;;;4.21;80.22;96323.14;104753;1259;99318;-84
2024/04/18 04:25:54;;;;;;;48.30;35.00;;;;;;;4.17;80.23;96326.91;104685;1257;104045;-83
2024/04/18 04:28:21;;;;;;;47.20;34.70;;;;;;;4.18;80.30;96326.13;104704;1257;99193;-84
2024/04/18 04:30:47;;;;;;;57.90;45.30;;;;;;;4.18;80.28;96324.92;104637;1260;100131;-83
2024/04/18 04:33:13;;;;;;;70.40;53.10;;;;;;;4.21;80.30;96330.12;104717;1259;99283;-83
2024/04/18 04:35:40;;;;;;;63.90;44.90;;;;;;;4.23;80.31;96337.55;104662;1271;105059;-84
2024/04/18 04:38:06;;;;;;;47.90;35.10;;;;;;;4.23;80.26;96337.73;104717;1258;99268;-80
2024/04/18 04:40:33;;;;;;;46.10;33.10;;;;;;;4.23;80.13;96340.56;104748;1271;99330;-80
2024/04/18 04:42:59;;;;;;;42.50;31.50;;;;;;;4.23;80.19;96342.95;104780;1270;99266;-79
2024/04/18 04:45:26;;;;;;;42.00;32.30;;;;;;;4.23;80.17;96343.80;104700;1260;104035;-80
2024/04/18 04:47:52;;;;;;;41.70;32.20;;;;;;;4.23;80.26;96346.61;104624;1270;99660;-80
2024/04/18 04:50:20;;;;;;;44.40;30.70;;;;;;;4.24;80.18;96348.66;104654;1259;99353;-79
2024/04/18 04:52:46;;;;;;;48.00;33.50;;;;;;;4.22;80.17;96349.45;104633;1270;99396;-80
2024/04/18 04:55:12;;;;;;;57.60;42.80;;;;;;;4.24;80.22;96348.87;104693;1260;99704;-80
2024/04/18 04:57:39;;;;;;;66.90;45.50;;;;;;;4.25;80.18;96349.36;104709;1260;101636;-80
2024/04/18 05:00:06;;;;;;;78.00;54.60;;;;;;;4.26;80.17;96350.85;104671;1257;99301;-80
2024/04/18 05:02:32;;;;;;;71.80;49.60;;;;;;;4.25;80.02;96343.83;104719;1259;99716;-76
2024/04/18 05:04:59;;;;;;;94.50;61.70;;;;;;;4.27;80.19;96352.30;104679;1259;99752;-76
2024/04/18 05:07:25;;;;;;;97.80;69.10;;;;;;;4.29;80.23;96352.64;104720;1259;99276;-76
2024/04/18 05:09:51;;;;;;;177.70;96.70;;;;;;;4.30;80.24;96354.99;104630;1259;99595;-76
2024/04/18 05:12:18;;;;;;;135.10;97.50;;;;;;;4.32;80.18;96354.92;104706;1258;99330;-76
2024/04/18 05:14:44;;;;;;;92.00;63.80;;;;;;;4.33;80.11;96362.08;104656;1259;99353;-76
2024/04/18 05:17:11;;;;;;;55.40;42.10;;;;;;;4.36;80.16;96364.05;104593;1264;99289;-80
2024/04/18 05:19:38;;;;;;;49.20;36.20;;;;;;;4.36;79.96;96366.52;104646;1262;99947;-76
2024/04/18 05:22:04;;;;;;;39.40;31.70;;;;;;;4.34;79.84;96367.43;104726;1260;102714;-76
2024/04/18 05:24:31;;;;;;;40.30;29.90;;;;;;;4.33;79.76;96369.45;104673;1257;100618;-76
2024/04/18 05:26:57;;;;;;;43.60;30.70;;;;;;;4.35;79.66;96370.17;104787;1272;99260;-76
2024/04/18 05:32:08;;;;;;;63.10;51.40;;;;;;;4.39;79.66;96374.02;104632;1259;99314;-84
2024/04/18 05:34:34;;;;;;;48.20;38.30;;;;;;;4.41;79.66;96375.11;104660;1259;99157;-80
2024/04/18 05:37:01;;;;;;;46.30;34.30;;;;;;;4.41;79.46;96371.91;104654;1257;99336;-79
2024/04/18 05:39:27;;;;;;;42.90;32.10;;;;;;;4.42;79.53;96372.12;104749;1260;99196;-79
2024/04/18 05:41:54;;;;;;;40.50;30.50;;;;;;;4.43;79.67;96373.23;104684;1259;99282;-80
2024/04/18 05:44:24;;;;;;;43.00;30.10;;;;;;;4.45;79.63;96375.47;104725;1256;99256;-79
2024/04/18 05:46:50;;;;;;;38.80;29.00;;;;;;;4.48;79.55;96376.03;104695;1257;104891;-79
2024/04/18 05:49:20;;;;;;;42.00;30.70;;;;;;;4.50;79.63;96376.29;104672;1259;99357;-79
2024/04/18 05:51:49;;;;;;;39.30;28.10;;;;;;;4.52;79.72;96381.00;104667;1260;100629;-80
2024/04/18 05:54:15;;;;;;;41.40;30.60;;;;;;;4.59;79.62;96381.61;104785;1260;99295;-80
2024/04/18 05:56:43;;;;;;;39.00;29.70;;;;;;;4.62;79.55;96382.73;104680;1260;99301;-79
2024/04/18 05:59:09;;;;;;;40.40;30.20;;;;;;;4.60;79.52;96385.40;104690;1259;99798;-79
2024/04/18 06:01:36;;;;;;;38.00;28.40;;;;;;;4.65;79.37;96384.14;104692;1268;99260;-85
2024/04/18 06:04:02;;;;;;;41.60;29.50;;;;;;;4.70;79.36;96384.50;104688;1257;99263;-84
2024/04/18 06:06:28;;;;;;;42.00;28.80;;;;;;;4.77;79.27;96385.43;104654;1259;99772;-83
2024/04/18 06:08:55;;;;;;;37.20;28.30;;;;;;;4.83;79.16;96387.25;104687;1259;100575;-84
2024/04/18 06:11:35;;;;;;;37.10;29.20;;;;;;;4.87;79.08;96381.73;104675;1259;100495;-83
2024/04/18 06:14:05;;;;;;;39.80;29.80;;;;;;;4.93;78.98;96388.54;104643;1259;100171;-85
2024/04/18 06:16:33;;;;;;;36.10;28.10;;;;;;;4.95;78.83;96389.44;104679;1259;99448;-84
2024/04/18 06:19:00;;;;;;;42.70;29.90;;;;;;;4.98;78.76;96391.55;104661;1261;99788;-84
2024/04/18 06:21:27;;;;;;;36.10;27.00;;;;;;;5.04;78.68;96393.47;104691;1259;99247;-84
2024/04/18 06:23:53;;;;;;;38.20;28.40;;;;;;;5.12;78.65;96390.41;104639;1260;99246;-84
2024/04/18 06:26:21;;;;;;;38.20;28.30;;;;;;;5.22;78.66;96390.99;104649;1259;100572;-84
2024/04/18 06:28:47;;;;;;;37.50;26.40;;;;;;;5.29;78.45;96389.16;104668;1271;99449;-83
2024/04/18 06:31:16;;;;;;;36.50;27.80;;;;;;;5.34;78.39;96387.98;104761;1259;99263;-85
2024/04/18 06:33:43;;;;;;;37.40;28.00;;;;;;;5.40;78.22;96390.58;104719;1256;101571;-72
2024/04/18 06:36:10;;;;;;;39.80;28.40;;;;;;;5.44;77.99;96396.05;104610;1270;99782;-73
2024/04/18 06:38:37;;;;;;;35.50;25.80;;;;;;;5.48;77.84;96396.72;104699;1278;100597;-73
2024/04/18 06:41:04;;;;;;;38.80;26.50;;;;;;;5.50;77.67;96401.96;104629;1257;99414;-72
2024/04/18 06:43:31;;;;;;;38.50;24.90;;;;;;;5.50;77.58;96399.58;104672;1259;99359;-73
2024/04/18 06:45:57;;;;;;;37.90;26.10;;;;;;;5.53;77.50;96404.48;104702;1257;99270;-79
2024/04/18 06:48:24;;;;;;;33.20;25.10;;;;;;;5.53;77.40;96406.34;104740;1274;99242;-80
2024/04/18 06:50:50;;;;;;;37.80;27.10;;;;;;;5.54;77.31;96409.18;104660;1259;99705;-80
2024/04/18 06:53:17;;;;;;;39.40;28.50;;;;;;;5.53;77.21;96413.91;104681;1272;99295;-80
2024/04/18 06:55:43;;;;;;;39.50;26.40;;;;;;;5.47;77.15;96418.95;104680;1259;99263;-80
2024/04/18 06:58:09;;;;;;;41.80;28.90;;;;;;;5.39;77.31;96416.44;104672;1259;99269;-80
2024/04/18 07:00:38;;;;;;;47.30;31.60;;;;;;;5.41;77.56;96418.26;104722;1259;99186;-84
2024/04/18 07:03:06;;;;;;;39.10;28.90;;;;;;;5.52;77.93;96417.61;104724;1259;104798;-84
2024/04/18 07:05:33;;;;;;;40.30;27.40;;;;;;;5.61;77.93;96417.63;104581;1278;100551;-83
2024/04/18 07:08:00;;;;;;;36.20;26.90;;;;;;;5.67;77.63;96422.33;104690;1257;99715;-84
2024/04/18 07:10:26;;;;;;;34.30;24.80;;;;;;;5.69;77.24;96419.68;104624;1262;99278;-85
2024/04/18 07:12:53;;;;;;;36.70;24.90;;;;;;;5.69;76.89;96420.05;104726;1259;99375;-84
2024/04/18 07:15:19;;;;;;;37.10;25.80;;;;;;;5.69;76.66;96426.03;104653;1260;101356;-86
2024/04/18 07:17:45;;;;;;;35.70;25.30;;;;;;;5.67;76.62;96422.61;104697;1270;99291;-85
2024/04/18 07:20:12;;;;;;;35.00;25.00;;;;;;;5.66;76.70;96423.27;104687;1259;99346;-85
2024/04/18 07:22:39;;;;;;;28.40;20.10;;;;;;;5.67;76.56;96425.00;104876;1259;99393;-85
2024/04/18 07:25:06;;;;;;;27.80;19.90;;;;;;;5.59;75.96;96422.94;104695;1259;100329;-84
2024/04/18 07:27:32;;;;;;;27.90;20.10;;;;;;;5.56;76.10;96424.81;104712;1260;99273;-84
2024/04/18 07:29:58;;;;;;;33.80;23.90;;;;;;;5.61;76.25;96427.75;104715;1260;100623;-85
2024/04/18 07:32:25;;;;;;;36.30;25.30;;;;;;;5.70;76.42;96428.67;104781;1257;99269;-85
2024/04/18 07:34:51;;;;;;;35.00;25.90;;;;;;;5.79;76.36;96426.08;104673;1272;101453;-84
2024/04/18 07:37:18;;;;;;;34.20;24.50;;;;;;;5.86;76.14;96432.40;104645;1260;99255;-85
2024/04/18 07:39:44;;;;;;;36.50;24.20;;;;;;;5.89;75.95;96426.29;104675;1259;99342;-84
2024/04/18 07:42:11;;;;;;;35.70;25.60;;;;;;;5.89;75.81;96427.23;104708;1261;99307;-82
2024/04/18 07:44:39;;;;;;;35.30;25.30;;;;;;;5.87;75.82;96430.64;104854;1260;101278;-84
2024/04/18 07:47:06;;;;;;;36.00;25.40;;;;;;;5.89;75.70;96432.60;104711;1259;100020;-85
2024/04/18 07:49:33;;;;;;;35.10;25.10;;;;;;;5.86;75.61;96433.22;104671;1260;100610;-75
2024/04/18 07:51:59;;;;;;;37.60;26.40;;;;;;;5.78;75.61;96433.10;104708;1259;99407;-76
2024/04/18 07:54:25;;;;;;;40.10;25.30;;;;;;;5.73;75.60;96430.94;104695;1259;99929;-76
2024/04/18 07:56:52;;;;;;;30.50;21.50;;;;;;;5.75;75.53;96431.07;104679;1259;99244;-76
2024/04/18 07:59:18;;;;;;;29.70;21.30;;;;;;;5.75;75.57;96432.80;104663;1260;99298;-76
2024/04/18 08:01:44;;;;;;;30.40;20.70;;;;;;;5.77;75.55;96435.73;104644;1259;102818;-73
2024/04/18 08:04:11;;;;;;;26.90;19.00;;;;;;;5.75;75.46;96431.81;104695;1260;99278;-73
2024/04/18 08:06:37;;;;;;;26.50;20.60;;;;;;;5.75;75.37;96432.52;104729;1261;99289;-72
2024/04/18 08:09:04;;;;;;;30.90;19.70;;;;;;;5.80;75.24;96428.73;104626;1274;99273;-73
2024/04/18 08:11:31;;;;;;;24.30;17.50;;;;;;;5.87;74.99;96428.04;104636;1262;100587;-73
2024/04/18 08:13:57;;;;;;;22.40;15.90;;;;;;;5.89;74.69;96431.73;104760;1259;99282;-73
2024/04/18 08:16:24;;;;;;;21.70;13.60;;;;;;;5.87;74.41;96431.05;104705;1259;99282;-85
2024/04/18 08:18:50;;;;;;;14.10;10.90;;;;;;;5.81;73.71;96427.70;104667;1271;99337;-83
2024/04/18 08:21:16;;;;;;;16.60;11.10;;;;;;;5.75;73.39;96425.02;104675;1259;100916;-84
2024/04/18 08:23:50;;;;;;;13.70;9.60;;;;;;;5.80;73.87;96429.33;104709;1261;99495;-85
2024/04/18 08:26:17;;;;;;;14.70;9.50;;;;;;;5.87;73.60;96425.88;104702;1260;101596;-85
2024/04/18 08:28:43;;;;;;;13.70;9.30;;;;;;;5.97;73.39;96427.44;104669;1267;99325;-85
2024/04/18 08:31:10;;;;;;;16.30;10.30;;;;;;;6.05;73.27;96429.63;104643;1257;99344;-84
2024/04/18 08:33:36;;;;;;;10.00;8.30;;;;;;;6.19;73.24;96423.22;104823;1257;99170;-85
2024/04/18 08:36:03;;;;;;;11.20;8.20;;;;;;;6.27;72.42;96414.71;104652;1261;101051;-85
2024/04/18 08:38:29;;;;;;;12.40;8.70;;;;;;;6.32;72.10;96417.97;104695;1272;99200;-83
2024/04/18 08:41:02;;;;;;;13.30;9.10;;;;;;;6.57;71.84;96417.80;104662;1259;99754;-84
2024/04/18 08:43:29;;;;;;;11.30;8.90;;;;;;;6.81;71.49;96415.83;104693;1259;99730;-83
2024/04/18 08:45:56;;;;;;;12.50;8.70;;;;;;;6.87;71.03;96416.39;104690;1259;99386;-85
2024/04/18 08:48:26;;;;;;;13.80;8.90;;;;;;;6.90;70.64;96410.34;104672;1259;99253;-84
2024/04/18 08:50:53;;;;;;;10.80;8.30;;;;;;;6.94;70.88;96410.83;104681;1259;99939;-84
2024/04/18 08:53:19;;;;;;;13.40;8.40;;;;;;;7.00;70.44;96411.09;104669;1260;100573;-84
2024/04/18 08:55:49;;;;;;;10.70;8.00;;;;;;;7.04;70.27;96410.70;104671;1260;100641;-85
2024/04/18 08:58:16;;;;;;;10.60;7.90;;;;;;;7.10;70.27;96412.74;104700;1260;104774;-84
2024/04/18 09:00:46;;;;;;;11.50;7.80;;;;;;;7.15;70.00;96414.73;104701;1259;99256;-80
2024/04/18 09:03:12;;;;;;;10.50;8.10;;;;;;;7.13;69.60;96415.55;104711;1259;100080;-80
2024/04/18 09:05:39;;;;;;;8.70;7.30;;;;;;;7.12;69.13;96415.45;104715;1258;99356;-80
2024/04/18 09:08:09;;;;;;;11.90;8.60;;;;;;;7.18;68.68;96410.84;104641;1270;99920;-80
2024/04/18 09:10:36;;;;;;;12.30;7.90;;;;;;;7.24;68.43;96411.64;104673;1275;105098;-80
2024/04/18 09:13:02;;;;;;;10.20;7.10;;;;;;;7.36;68.93;96411.33;104656;1260;99247;-81
2024/04/18 09:15:31;;;;;;;15.80;8.40;;;;;;;7.75;69.11;96406.11;104690;1278;99845;-81
2024/04/18 09:18:03;;;;;;;10.30;7.80;;;;;;;8.28;69.12;96407.88;104680;1270;99746;-76
2024/04/18 09:20:31;;;;;;;10.00;6.00;;;;;;;8.57;67.88;96407.35;104682;1259;100557;-76
2024/04/18 09:22:58;;;;;;;9.50;6.00;;;;;;;8.61;66.61;96404.63;104719;1259;104893;-76
2024/04/18 09:25:24;;;;;;;8.00;5.30;;;;;;;8.45;65.49;96412.08;104735;1259;100931;-74
2024/04/18 09:27:51;;;;;;;7.90;6.20;;;;;;;8.20;65.42;96416.05;104737;1267;99288;-73
2024/04/18 09:30:17;;;;;;;10.90;8.20;;;;;;;7.91;65.50;96421.79;104731;1270;99243;-72
2024/04/18 09:32:45;;;;;;;9.90;7.70;;;;;;;7.56;65.63;96426.94;104717;1273;105004;-73
2024/04/18 09:35:11;;;;;;;8.60;7.10;;;;;;;7.15;65.87;96429.67;104698;1259;99310;-74
2024/04/18 09:37:39;;;;;;;8.30;6.70;;;;;;;6.85;66.24;96428.65;104734;1259;99346;-72
2024/04/18 09:40:09;;;;;;;9.40;6.90;;;;;;;6.71;66.81;96428.66;104768;1259;102036;-73
2024/04/18 09:42:47;;;;;;;11.60;7.20;;;;;;;6.69;66.93;96430.80;104698;1260;99899;-74
2024/04/18 09:45:18;;;;;;;10.90;7.20;;;;;;;6.73;67.09;96427.75;104719;1259;111806;-73
2024/04/18 09:47:47;;;;;;;11.20;8.30;;;;;;;6.78;67.13;96425.86;104665;1259;101246;-74
2024/04/18 09:50:14;;;;;;;8.90;6.80;;;;;;;6.86;67.20;96428.55;104716;1259;99926;-73
2024/04/18 09:52:42;;;;;;;9.80;7.00;;;;;;;6.96;67.19;96429.85;104693;1259;99263;-73
2024/04/18 09:55:08;;;;;;;11.90;9.00;;;;;;;7.08;67.33;96430.50;104696;1259;99356;-73
2024/04/18 09:57:36;;;;;;;14.10;9.30;;;;;;;7.20;67.51;96429.25;104723;1259;99344;-73
2024/04/18 10:00:03;;;;;;;12.80;9.30;;;;;;;7.30;67.93;96427.30;104733;1259;99272;-73
2024/04/18 10:02:32;;;;;;;14.30;10.40;;;;;;;7.42;67.84;96428.64;104728;1259;99705;-76
2024/04/18 10:04:59;;;;;;;15.00;10.10;;;;;;;7.47;67.68;96428.91;104642;1260;100607;-76
2024/04/18 10:07:27;;;;;;;15.60;10.30;;;;;;;7.53;67.26;96433.16;104749;1260;99335;-76
2024/04/18 10:09:54;;;;;;;15.40;9.80;;;;;;;7.61;67.08;96430.42;104659;1259;99604;-76
2024/04/18 10:12:21;;;;;;;18.80;11.40;;;;;;;7.67;66.95;96431.92;104679;1262;99267;-76
2024/04/18 10:14:51;;;;;;;16.60;11.70;;;;;;;7.62;66.65;96436.12;104693;1257;99265;-77
2024/04/18 10:17:29;;;;;;;17.00;10.80;;;;;;;7.56;66.50;96437.44;104699;1257;99209;-77
2024/04/18 10:19:59;;;;;;;16.60;10.70;;;;;;;7.47;66.32;96438.65;104705;1259;99775;-76
2024/04/18 10:22:29;;;;;;;15.50;10.40;;;;;;;7.29;66.27;96444.08;104701;1259;104910;-76
2024/04/18 10:24:56;;;;;;;16.20;10.70;;;;;;;7.15;66.42;96444.80;104921;1257;100887;-76
2024/04/18 10:27:23;;;;;;;15.90;10.60;;;;;;;6.93;66.45;96448.14;104604;1259;100564;-76
2024/04/18 10:29:58;;;;;;;16.10;11.30;;;;;;;6.75;66.58;96455.45;104737;1271;100587;-76
2024/04/18 10:32:32;;;;;;;12.80;9.50;;;;;;;6.63;66.80;96454.79;104674;1257;99644;-81
2024/04/18 10:34:59;;;;;;;13.20;9.30;;;;;;;6.58;67.00;96455.59;104605;1261;105060;-81
2024/04/18 10:37:26;;;;;;;11.40;8.50;;;;;;;6.55;67.05;96456.45;104676;1279;101544;-81
2024/04/18 10:39:53;;;;;;;14.10;9.70;;;;;;;6.58;66.98;96455.95;104702;1260;100599;-81
2024/04/18 10:42:20;;;;;;;13.10;9.00;;;;;;;6.66;67.04;96458.13;104593;1273;99282;-76
2024/04/18 10:44:48;;;;;;;12.20;8.60;;;;;;;6.78;67.03;96457.77;104643;1259;100566;-76
2024/04/18 10:47:18;;;;;;;12.30;9.40;;;;;;;6.90;66.86;96450.38;104707;1259;99327;-76
2024/04/18 10:49:49;;;;;;;11.60;8.40;;;;;;;6.99;66.63;96449.98;104396;1257;100562;-76
2024/04/18 10:52:19;;;;;;;11.00;8.50;;;;;;;7.08;66.24;96452.30;104618;1259;99967;-77
2024/04/18 10:54:46;;;;;;;12.20;7.90;;;;;;;7.16;66.44;96452.48;104660;1264;99262;-76
2024/04/18 10:57:12;;;;;;;11.00;8.30;;;;;;;7.26;65.90;96454.86;104663;1262;99287;-76
2024/04/18 10:59:43;;;;;;;10.20;8.10;;;;;;;7.31;65.87;96449.19;104746;1262;100604;-76
2024/04/18 11:02:10;;;;;;;10.30;7.40;;;;;;;7.41;65.76;96449.39;104847;1257;101634;-77
2024/04/18 11:04:36;;;;;;;12.90;8.40;;;;;;;7.72;65.85;96449.12;106424;1259;99343;-77
2024/04/18 11:07:03;;;;;;;11.80;7.10;;;;;;;8.32;65.86;96445.48;104675;1271;99763;-76
2024/04/18 11:09:31;;;;;;;8.80;7.00;;;;;;;9.04;65.36;96439.62;104638;1259;99262;-76
2024/04/18 11:11:57;;;;;;;8.60;7.00;;;;;;;9.78;64.28;96440.80;104747;1275;99343;-76
2024/04/18 11:14:25;;;;;;;8.20;6.10;;;;;;;10.31;62.83;96432.52;104721;1260;100575;-76
2024/04/18 11:17:00;;;;;;;10.40;7.00;;;;;;;10.78;62.21;96426.65;104738;1259;99272;-77
2024/04/18 11:19:28;;;;;;;10.40;7.30;;;;;;;10.90;61.22;96422.98;104761;1259;100964;-76